Flight Track Log - Related Links

Times and Time Zones

All times are in EDT time to prevent confusion due to time zone crossing. See the N18PN flight status page for this flight to view local times or setup timezone preferences in your user account.

Time Position Orientation Groundspeed Altitude Reporting Facility
EDT Latitude Longitude Course Direction KTS MPH feet Rate Location/Type
Wed 08:45:12 AM 40.2500 -74.8500 31° Northeast 105 121 1,400  Level Philadelphia TRACON
Wed 08:46:23 AM 40.2333 -74.9000 246° West 115 132 2,500 810 Climbing Philadelphia TRACON
Wed 08:47:18 AM 40.2500 -74.9167 323° Northwest 119 137 3,100 678 Climbing Philadelphia TRACON
Wed 08:48:18 AM 40.2833 -74.9500 323° Northwest 121 139 3,800 500 Climbing Philadelphia TRACON
Wed 08:49:18 AM 40.3167 -74.9667 339° North 135 155 4,100 150 Climbing Philadelphia TRACON
Wed 08:50:00 AM 40.4630 -74.6646 31° Northeast  Level Estimated
Wed 08:50:18 AM 40.3333 -75.0167 294° West 156 180 4,100  Level Philadelphia TRACON
Wed 08:52:00 AM 40.3848 -74.9717 34° Northeast  Level Estimated
Wed 08:59:00 AM 40.5964 -74.7859 34° Northeast  Level Estimated
Wed 09:00:00 AM 40.6267 -74.7592 34° Northeast  Level Estimated
Wed 09:01:00 AM 40.6569 -74.7325 34° Northeast  Level Estimated
Wed 09:02:00 AM 40.6871 -74.7058 34° Northeast  Level Estimated
Wed 09:03:00 AM 40.7173 -74.6791 34° Northeast  Level Estimated
Wed 09:04:00 AM 40.7474 -74.6524 34° Northeast  Level Estimated
Wed 09:05:00 AM 40.7776 -74.6256 34° Northeast  Level Estimated
Wed 09:06:00 AM 40.8078 -74.5988 34° Northeast  Level Estimated
Wed 09:07:00 AM 40.8380 -74.5720 34° Northeast  Level Estimated
Wed 09:08:00 AM 40.8681 -74.5452 34° Northeast  Level Estimated
Wed 09:09:00 AM 40.8983 -74.5183 34° Northeast  Level Estimated
Wed 09:10:00 AM 40.9284 -74.4914 34° Northeast  Level Estimated
Wed 09:11:00 AM 40.9586 -74.4645 34° Northeast  Level Estimated
Wed 09:12:00 AM 40.9887 -74.4376 34° Northeast  Level Estimated
Wed 09:13:00 AM 41.0188 -74.4106 34° Northeast  Level Estimated
Wed 09:14:00 AM 41.0490 -74.3836 34° Northeast  Level Estimated
Wed 09:15:00 AM 41.0791 -74.3566 34° Northeast  Level Estimated
Wed 09:16:00 AM 41.1092 -74.3296 34° Northeast  Level Estimated
Wed 09:17:00 AM 41.1393 -74.3025 34° Northeast  Level Estimated
Wed 09:18:00 AM 41.1694 -74.2754 34° Northeast  Level Estimated
Wed 09:19:00 AM 41.1995 -74.2483 34° Northeast  Level Estimated
Wed 09:20:00 AM 41.2296 -74.2212 34° Northeast  Level Estimated
Wed 09:21:00 AM 41.2597 -74.1940 34° Northeast  Level Estimated
Wed 09:22:00 AM 41.2898 -74.1668 34° Northeast  Level Estimated
Wed 09:23:00 AM 41.3198 -74.1396 34° Northeast  Level Estimated
Wed 09:24:00 AM 41.3499 -74.1124 34° Northeast  Level Estimated
Wed 09:25:00 AM 41.3800 -74.0851 34° Northeast  Level Estimated
Wed 09:25:21 AM 41.7286 -75.2969 34° Northeast 186 214 7,000  Level Boston Center
Wed 09:26:00 AM 41.4100 -74.0578 34° Northeast  Level Estimated
Wed 09:26:21 AM 41.7711 -75.2656 29° Northeast 191 220 7,000  Level Boston Center
Wed 09:27:00 AM 41.4400 -74.0305 34° Northeast  Level Estimated
Wed 09:27:21 AM 41.8136 -75.2339 29° Northeast 186 214 7,000  Level Boston Center
Wed 09:28:00 AM 41.4701 -74.0032 34° Northeast  Level Estimated
Wed 09:28:21 AM 41.8561 -75.1997 31° Northeast 176 203 7,000  Level Boston Center
Wed 09:29:00 AM 41.5001 -73.9758 34° Northeast  Level Estimated
Wed 09:29:21 AM 41.8986 -75.1681 29° Northeast 176 203 7,000  Level Boston Center
Wed 09:30:00 AM 41.5301 -73.9484 34° Northeast  Level Estimated
Wed 09:30:21 AM 41.9472 -75.1339 28° Northeast 176 203 7,000  Level Boston Center
Wed 09:31:21 AM 41.9878 -75.1019 30° Northeast 171 197 7,000 50 Level Boston Center
Wed 09:32:21 AM 42.0303 -75.0675 31° Northeast 171 197 7,100 100 Climbing Boston Center
Wed 09:33:21 AM 42.0767 -75.0358 27° Northeast 171 197 7,200 50 Climbing Boston Center
Wed 09:34:21 AM 42.1211 -75.0097 24° Northeast 171 197 7,200  Level Boston Center
Wed 09:35:21 AM 42.1617 -74.9722 34° Northeast 171 197 7,200  Level Boston Center
Wed 09:36:21 AM 42.1981 -74.9231 45° Northeast 176 203 7,200  Level Boston Center
Wed 09:37:21 AM 42.2244 -74.8681 57° Northeast 171 197 7,200  Level Boston Center
Wed 09:38:21 AM 42.2547 -74.8133 53° Northeast 171 197 7,200  Level Boston Center
Wed 09:39:21 AM 42.2853 -74.7497 57° Northeast 181 208 7,200  Level Boston Center
Wed 09:40:21 AM 42.3133 -74.6919 57° Northeast 186 214 7,200 -100 Level Boston Center
Wed 09:41:21 AM 42.3375 -74.6394 58° Northeast 186 214 7,000 -57 Descending Boston Center
Wed 09:42:07 AM 42.3656 -74.5842 56° Northeast 190 219 7,100 53 Climbing Boston Center
Wed 09:43:14 AM 42.3958 -74.5206 57° Northeast 198 228 7,100  Level Boston Center
Wed 09:44:15 AM 42.4261 -74.4597 56° Northeast 191 220 7,100  Level Boston Center
Wed 09:45:15 AM 42.4586 -74.4017 53° Northeast 195 224 7,100  Level Boston Center
Wed 09:46:16 AM 42.4889 -74.3378 57° Northeast 194 223 7,100  Level Boston Center
Wed 09:47:17 AM 42.5169 -74.2767 58° Northeast 193 222 7,100  Level Boston Center
Wed 09:48:17 AM 42.5492 -74.2128 56° Northeast 195 224 7,100  Level Boston Center
Wed 09:49:24 AM 42.5794 -74.1458 58° Northeast 195 224 7,100  Level Boston Center
Wed 09:50:37 AM 42.6181 -74.0736 54° Northeast 194 223 7,100  Level Boston Center
Wed 09:51:33 AM 42.6436 -74.0236 55° Northeast 192 221 7,100  Level Boston Center
Wed 09:52:33 AM 42.6717 -73.9622 58° Northeast 192 221 7,100  Level Boston Center
Wed 09:53:33 AM 42.7014 -73.9036 55° Northeast 192 221 7,100  Level Boston Center
Wed 09:54:33 AM 42.7294 -73.8447 57° Northeast 192 221 7,100  Level Boston Center
Wed 09:55:33 AM 42.7614 -73.7833 55° Northeast 192 221 7,100  Level Boston Center
Wed 09:56:33 AM 42.7850 -73.7131 65° Northeast 187 215 7,100 47 Level Boston Center
Wed 09:57:42 AM 42.8131 -73.6431 61° Northeast 188 216 7,200 46 Climbing Boston Center
Wed 09:58:43 AM 42.8408 -73.5783 60° Northeast 189 217 7,200  Level Boston Center
Wed 09:59:37 AM 42.8642 -73.5222 60° Northeast 189 217 7,200  Level Boston Center
Wed 10:00:38 AM 42.8878 -73.4575 64° Northeast 192 221 7,200  Level Boston Center
Wed 10:01:39 AM 42.9153 -73.3925 60° Northeast 192 221 7,200  Level Boston Center
Wed 10:02:39 AM 42.9408 -73.3306 61° Northeast 193 222 7,200 -43 Level Boston Center
Wed 10:03:57 AM 42.9706 -73.2544 62° Northeast 209 241 7,100 -43 Descending Boston Center
Wed 10:04:57 AM 42.9983 -73.1811 63° Northeast 196 226 7,100  Level Boston Center
Wed 10:05:57 AM 43.0214 -73.1217 62° Northeast 191 220 7,100  Level Boston Center
Wed 10:06:57 AM 43.0511 -73.0508 60° Northeast 191 220 7,100  Level Boston Center
Wed 10:07:57 AM 43.0742 -72.9944 61° Northeast 191 220 7,100  Level Boston Center
Wed 10:08:57 AM 43.0997 -72.9319 61° Northeast 191 220 7,100  Level Boston Center
Wed 10:09:57 AM 43.1228 -72.8697 63° Northeast 185 213 7,100  Level Boston Center
Wed 10:10:57 AM 43.1481 -72.8072 61° Northeast 179 206 7,100  Level Boston Center
Wed 10:12:09 AM 43.1733 -72.7447 61° Northeast 179 206 7,100 -227 Level Boston Center
Wed 10:13:09 AM 43.2025 -72.6681 62° Northeast 179 206 6,600 -400 Descending Boston Center
Wed 10:14:09 AM 43.2278 -72.6025 62° Northeast 179 206 6,300 -300 Descending Boston Center
Wed 10:15:09 AM 43.2528 -72.5397 61° Northeast 179 206 6,000 -350 Descending Boston Center
Wed 10:16:09 AM 43.2758 -72.4800 62° Northeast 179 206 5,600 -400 Descending Boston Center
Wed 10:17:09 AM 43.2967 -72.4286 61° Northeast 174 200 5,200 -300 Descending Boston Center
Wed 10:18:09 AM 43.3172 -72.3744 62° Northeast 169 194 5,000 -100 Descending Boston Center
Wed 10:19:09 AM 43.3361 -72.3258 62° Northeast 162 186 5,000  Level Boston Center

Login

Don't have an account? Register now (free) for customized features, flight alerts, and more!